createdAt,value
2022-11-29T00:13:56.941Z,86.0
2022-11-29T00:27:56.952Z,87.0
2022-11-29T00:41:56.932Z,87.0
2022-11-29T00:55:56.977Z,88.0
2022-11-29T01:09:56.977Z,88.0
2022-11-29T01:23:56.957Z,89.0
2022-11-29T01:37:56.992Z,89.0
2022-11-29T01:51:57.026Z,90.0
2022-11-29T02:05:57.010Z,91.0
2022-11-29T02:19:57.043Z,91.0
2022-11-29T02:33:57.028Z,91.0
2022-11-29T02:47:57.037Z,88.0
2022-11-29T03:01:57.018Z,87.0
2022-11-29T03:15:57.076Z,88.0
2022-11-29T03:29:57.065Z,89.0
2022-11-29T03:43:57.076Z,88.0
2022-11-29T03:57:57.073Z,89.0
2022-11-29T04:11:57.063Z,89.0
2022-11-29T04:25:57.077Z,90.0
2022-11-29T04:39:57.102Z,91.0
2022-11-29T04:53:57.142Z,91.0
2022-11-29T05:07:57.186Z,91.0
2022-11-29T05:21:57.132Z,91.0
2022-11-29T05:35:57.128Z,90.0
2022-11-29T05:49:57.110Z,91.0
2022-11-29T06:03:57.125Z,90.0
2022-11-29T06:17:57.164Z,90.0
2022-11-29T06:27:10.026Z,91.0
2022-11-29T06:42:10.124Z,91.0
2022-11-29T06:57:10.026Z,92.0
2022-11-29T07:12:10.205Z,92.0
2022-11-29T07:27:10.616Z,92.0
2022-11-29T07:42:10.738Z,91.0
2022-11-29T07:57:10.713Z,90.0
2022-11-29T08:12:10.735Z,89.0
2022-11-29T08:27:10.747Z,88.0
2022-11-29T08:42:10.757Z,87.0
2022-11-29T08:57:38.338Z,84.0
2022-11-29T09:12:10.894Z,83.0
2022-11-29T09:27:10.900Z,84.0
2022-11-29T09:42:10.909Z,83.0
2022-11-29T09:57:11.148Z,81.0
2022-11-29T10:12:10.947Z,82.0
2022-11-29T10:27:10.995Z,84.0
2022-11-29T10:42:10.997Z,84.0
2022-11-29T10:57:11.008Z,84.0
2022-11-29T11:12:11.018Z,84.0
2022-11-29T11:27:11.082Z,84.0
2022-11-29T11:42:11.031Z,84.0
2022-11-29T11:57:11.097Z,85.0
2022-11-29T12:12:11.110Z,84.0
2022-11-29T12:27:11.821Z,82.0
2022-11-29T12:43:11.280Z,80.0
2022-11-29T12:58:11.399Z,79.0
2022-11-29T13:13:11.720Z,77.0
2022-11-29T13:28:11.669Z,79.0
2022-11-29T13:43:11.696Z,79.0
2022-11-29T13:58:18.017Z,80.0
2022-11-29T14:13:11.664Z,82.0
2022-11-29T14:28:11.681Z,84.0
2022-11-29T14:43:11.663Z,84.0
2022-11-29T14:58:11.673Z,86.0
2022-11-29T15:13:11.699Z,88.0
2022-11-29T15:28:11.715Z,90.0
2022-11-29T15:43:11.711Z,91.0
2022-11-29T15:58:11.692Z,92.0
2022-11-29T16:13:11.705Z,93.0
2022-11-29T16:27:11.732Z,93.0
2022-11-29T16:41:11.746Z,94.0
2022-11-29T16:55:11.751Z,94.0
2022-11-29T17:09:11.785Z,94.0
2022-11-29T17:24:11.820Z,94.0
2022-11-29T17:38:11.882Z,95.0
2022-11-29T17:52:11.797Z,95.0
2022-11-29T18:07:18.833Z,96.0
2022-11-29T18:21:19.239Z,96.0
2022-11-29T18:35:19.063Z,95.0
2022-11-29T18:50:19.180Z,95.0
2022-11-29T19:04:19.433Z,95.0
2022-11-29T19:18:19.828Z,95.0
2022-11-29T19:32:19.652Z,94.0
2022-11-29T19:46:19.733Z,94.0
2022-11-29T20:00:19.678Z,93.0
2022-11-29T20:14:19.667Z,91.0
2022-11-29T20:28:19.657Z,87.0
2022-11-29T20:42:19.715Z,87.0
2022-11-29T20:56:19.877Z,88.0
2022-11-29T21:10:19.704Z,89.0
2022-11-29T21:24:19.720Z,83.0
2022-11-29T21:38:19.838Z,83.0
2022-11-29T21:52:22.416Z,84.0
2022-11-29T22:06:19.834Z,85.0
2022-11-29T22:20:19.924Z,84.0
2022-11-29T22:34:20.142Z,84.0
2022-11-29T22:46:49.058Z,85.0
2022-11-29T23:00:49.059Z,85.0
2022-11-29T23:14:53.033Z,81.0
2022-11-29T23:28:49.160Z,79.0
2022-11-29T23:42:49.105Z,79.0
2022-11-29T23:56:49.225Z,81.0
